Time;durP1;ratioP1;P1;durP2;ratioP2;P2;SDS_P1;SDS_P2;PMS_P1;PMS_P2;Temp;Humidity;BMP_temperature;BMP_pressure;BME280_temperature;BME280_humidity;BME280_pressure;Samples;Min_cycle;Max_cycle;Signal;HPM_P1;HPM_P2
2023/01/04 00:01:14;;;;;;;14.10;7.07;;;;;;;2.14;100.00;100063.97;5026803;28;20115;-77
2023/01/04 00:03:40;;;;;;;14.23;6.70;;;;;;;2.12;100.00;100078.41;5013058;28;20033;-77
2023/01/04 00:06:08;;;;;;;12.20;6.68;;;;;;;2.06;100.00;100073.53;5001870;28;20416;-77
2023/01/04 00:08:34;;;;;;;13.70;6.72;;;;;;;2.18;100.00;100085.94;5012337;28;20037;-77
2023/01/04 00:11:00;;;;;;;13.52;6.90;;;;;;;2.14;100.00;100084.47;5012932;28;20163;-77
2023/01/04 00:13:26;;;;;;;16.08;7.63;;;;;;;1.89;100.00;100058.81;5008247;28;20021;-77
2023/01/04 00:15:52;;;;;;;11.27;6.63;;;;;;;1.90;100.00;100058.69;5027105;28;20037;-77
2023/01/04 00:18:17;;;;;;;16.40;8.07;;;;;;;1.95;100.00;100075.22;5010239;28;20115;-77
2023/01/04 00:20:42;;;;;;;12.07;7.32;;;;;;;2.10;100.00;100077.69;5017235;28;20502;-77
2023/01/04 00:23:07;;;;;;;13.43;7.43;;;;;;;2.07;100.00;100046.75;5010242;28;20053;-77
2023/01/04 00:25:33;;;;;;;10.35;6.35;;;;;;;2.08;100.00;100045.75;5009583;28;20406;-77
2023/01/04 00:27:58;;;;;;;13.25;6.53;;;;;;;2.16;100.00;100054.03;5011335;28;20025;-77
2023/01/04 00:30:23;;;;;;;13.07;7.82;;;;;;;2.15;100.00;100027.47;5006102;28;20427;-77
2023/01/04 00:32:49;;;;;;;14.50;6.55;;;;;;;2.25;100.00;100015.06;5007860;28;20024;-77
2023/01/04 00:35:14;;;;;;;12.27;6.75;;;;;;;2.07;100.00;99987.13;5034370;28;20029;-77
2023/01/04 00:37:39;;;;;;;14.85;6.32;;;;;;;2.23;100.00;100003.69;5022125;28;20056;-77
2023/01/04 00:40:05;;;;;;;9.60;5.85;;;;;;;2.46;100.00;100014.34;5019608;28;20045;-77
2023/01/04 00:42:31;;;;;;;12.70;5.88;;;;;;;2.39;100.00;99997.97;5009715;28;20068;-77
2023/01/04 00:44:56;;;;;;;8.80;5.85;;;;;;;2.28;100.00;99979.25;5010999;28;20159;-77
2023/01/04 00:47:21;;;;;;;10.95;6.50;;;;;;;2.17;100.00;99961.41;5032092;28;20048;-77
2023/01/04 00:49:46;;;;;;;13.85;6.50;;;;;;;2.38;100.00;100005.16;5031117;28;20017;-76
2023/01/04 00:52:12;;;;;;;11.02;6.18;;;;;;;2.39;100.00;99987.28;5028970;28;20394;-76
2023/01/04 00:54:37;;;;;;;12.27;6.25;;;;;;;2.42;100.00;100003.91;5013538;28;20025;-77
2023/01/04 00:57:04;;;;;;;12.95;6.47;;;;;;;2.39;100.00;100004.16;5010507;28;20399;-77
2023/01/04 00:59:29;;;;;;;10.63;6.60;;;;;;;2.30;100.00;100007.53;5023706;28;20071;-77
2023/01/04 01:01:54;;;;;;;10.27;5.93;;;;;;;1.74;100.00;99928.28;5015820;28;20051;-77
2023/01/04 01:04:22;;;;;;;10.73;6.30;;;;;;;2.22;100.00;100023.31;5001473;28;20494;-77
2023/01/04 01:06:48;;;;;;;13.02;6.65;;;;;;;2.09;100.00;100012.75;5007740;28;20070;-77
2023/01/04 01:09:14;;;;;;;11.10;6.70;;;;;;;2.18;100.00;100040.56;5008679;28;20030;-77
2023/01/04 01:11:40;;;;;;;9.95;6.50;;;;;;;2.12;100.00;100041.03;5007165;28;20022;-76
2023/01/04 01:14:07;;;;;;;10.70;6.68;;;;;;;1.74;100.00;100008.31;5007479;28;20028;-77
2023/01/04 01:16:32;;;;;;;11.05;5.90;;;;;;;1.75;100.00;100038.50;5037815;28;20067;-76
2023/01/04 01:18:57;;;;;;;14.85;6.47;;;;;;;1.65;100.00;100034.84;5001185;28;20022;-77
2023/01/04 01:21:26;;;;;;;12.02;6.70;;;;;;;1.77;100.00;100041.91;5022626;28;20029;-77
2023/01/04 01:23:53;;;;;;;13.93;6.50;;;;;;;1.83;100.00;100052.13;5015462;28;20088;-77
2023/01/04 01:26:21;;;;;;;11.27;6.15;;;;;;;1.82;100.00;100036.25;5014960;28;20032;-77
2023/01/04 01:28:46;;;;;;;10.93;5.53;;;;;;;1.66;100.00;100048.06;5011156;28;20681;-77
2023/01/04 01:31:18;;;;;;;13.50;6.78;;;;;;;1.58;100.00;100045.13;5031185;28;20029;-77
2023/01/04 01:33:46;;;;;;;12.35;5.68;;;;;;;1.50;100.00;100055.53;5029017;28;20056;-77
2023/01/04 01:36:13;;;;;;;13.50;7.38;;;;;;;1.61;100.00;100034.22;5028078;28;20543;-77
2023/01/04 01:38:38;;;;;;;12.35;5.85;;;;;;;1.54;100.00;100022.31;5017555;28;20038;-77
2023/01/04 01:41:05;;;;;;;14.20;7.40;;;;;;;1.79;100.00;100064.00;5014045;28;20029;-78
2023/01/04 01:44:04;;;;;;;14.50;7.32;;;;;;;1.82;100.00;100057.59;5037122;28;20034;-77
2023/01/04 01:46:32;;;;;;;13.27;6.70;;;;;;;1.85;100.00;100054.69;5028536;28;20021;-77
2023/01/04 01:49:08;;;;;;;10.80;5.60;;;;;;;1.85;100.00;100050.19;5033501;28;20499;-77
2023/01/04 01:51:34;;;;;;;9.57;6.00;;;;;;;1.69;100.00;100028.31;5018427;28;20025;-77
2023/01/04 01:54:33;;;;;;;10.85;5.93;;;;;;;1.85;100.00;100047.53;5032805;28;20033;-77
2023/01/04 01:57:02;;;;;;;9.93;6.07;;;;;;;1.68;100.00;100029.28;5026927;28;20029;-77
2023/01/04 01:59:28;;;;;;;;;;;;;;;1.71;100.00;100050.41;5013958;28;20033;-78
2023/01/04 02:01:54;;;;;;;10.18;5.88;;;;;;;1.60;100.00;100032.53;5037704;28;19936;-77
2023/01/04 02:04:19;;;;;;;10.48;5.90;;;;;;;1.49;100.00;100020.00;5037575;28;20029;-77
2023/01/04 02:06:48;;;;;;;11.25;5.85;;;;;;;1.64;100.00;100047.31;5010807;28;20510;-77
2023/01/04 02:09:15;;;;;;;14.05;5.88;;;;;;;1.62;100.00;100035.06;5014835;28;20021;-77
2023/01/04 02:11:41;;;;;;;8.85;5.75;;;;;;;1.38;100.00;99997.78;5012680;28;20503;-77
2023/01/04 02:14:26;;;;;;;8.73;5.30;;;;;;;1.19;100.00;99980.50;5015387;28;20037;-77
2023/01/04 02:17:07;;;;;;;8.60;4.75;;;;;;;1.52;100.00;100014.44;5032923;28;20025;-77
2023/01/04 02:19:49;;;;;;;8.45;4.90;;;;;;;1.69;100.00;100028.31;5025777;28;20052;-77
2023/01/04 02:22:20;;;;;;;9.15;5.03;;;;;;;1.78;100.00;100027.59;5034020;28;20026;-78
2023/01/04 02:24:56;;;;;;;9.55;4.95;;;;;;;1.63;100.00;99994.13;5037862;28;20032;-78
2023/01/04 02:28:14;;;;;;;7.80;4.93;;;;;;;1.81;100.00;100024.72;5012573;28;20108;-78
2023/01/04 02:30:43;;;;;;;7.80;4.60;;;;;;;2.00;100.00;100013.47;4984002;28;20476;-78
2023/01/04 02:33:14;;;;;;;8.05;4.60;;;;;;;2.18;100.00;100008.53;5016576;28;20488;-78
2023/01/04 02:36:11;;;;;;;7.93;4.68;;;;;;;2.22;100.00;99995.78;5019803;28;20109;-78
2023/01/04 02:39:01;;;;;;;8.00;4.30;;;;;;;2.15;100.00;99974.91;5020637;28;20026;-77
2023/01/04 02:41:40;;;;;;;10.23;4.25;;;;;;;2.40;100.00;99999.66;5034236;28;20049;-77
2023/01/04 02:47:09;;;;;;;8.57;4.72;;;;;;;2.38;100.00;99983.78;5024409;28;20739;-77
2023/01/04 02:52:20;;;;;;;8.18;4.40;;;;;;;2.32;100.00;99960.22;5027063;28;20047;-78
2023/01/04 02:54:48;;;;;;;7.15;3.92;;;;;;;2.40;100.00;99962.28;5030720;28;21208;-77
2023/01/04 02:57:35;;;;;;;7.35;3.80;;;;;;;2.48;100.00;99959.00;5032922;28;20029;-77
2023/01/04 03:00:27;;;;;;;8.88;4.30;;;;;;;2.52;100.00;99965.78;5019464;28;20644;-77
2023/01/04 03:06:14;;;;;;;7.07;3.97;;;;;;;2.69;100.00;99945.72;5029110;28;20502;-77
2023/01/04 03:08:59;;;;;;;5.95;3.45;;;;;;;2.69;100.00;99951.06;5026815;28;20478;-77
2023/01/04 03:14:23;;;;;;;8.85;3.60;;;;;;;2.58;100.00;99919.88;5022666;28;20087;-77
2023/01/04 03:16:50;;;;;;;5.25;3.17;;;;;;;2.56;100.00;99916.47;5038438;22;20020;-75
2023/01/04 03:22:03;;;;;;;6.22;3.70;;;;;;;2.30;100.00;99918.56;5032355;28;20044;-74
2023/01/04 03:36:05;;;;;;;6.28;3.67;;;;;;;2.30;100.00;99927.44;5009874;28;20056;-75
2023/01/04 03:48:31;;;;;;;7.35;3.70;;;;;;;2.58;100.00;99902.03;5010953;28;20095;-75
2023/01/04 03:51:21;;;;;;;7.10;3.78;;;;;;;2.64;100.00;99906.84;4985315;28;20037;-75
2023/01/04 03:54:05;;;;;;;7.25;3.90;;;;;;;2.63;100.00;99905.16;4994726;28;20117;-75
2023/01/04 03:56:34;;;;;;;7.97;3.78;;;;;;;2.72;100.00;99913.41;5008913;28;20028;-75
2023/01/04 03:59:00;;;;;;;6.25;3.30;;;;;;;2.70;100.00;99894.84;5011384;28;20531;-77
2023/01/04 04:01:27;;;;;;;7.70;3.58;;;;;;;2.70;100.00;99892.16;4985773;28;20094;-77
2023/01/04 04:09:21;;;;;;;8.68;3.40;;;;;;;2.90;100.00;99887.81;5001883;28;20152;-78
2023/01/04 04:11:46;;;;;;;5.38;3.28;;;;;;;2.96;100.00;99891.81;5010572;28;20106;-79
2023/01/04 04:14:11;;;;;;;6.63;3.55;;;;;;;2.98;100.00;99892.53;5010219;28;20034;-78
2023/01/04 04:16:37;;;;;;;6.18;3.53;;;;;;;3.05;100.00;99893.72;4989154;28;20041;-79
2023/01/04 04:19:03;;;;;;;5.88;3.45;;;;;;;3.08;100.00;99888.97;5014729;28;20052;-78
2023/01/04 04:21:28;;;;;;;6.57;3.25;;;;;;;3.13;100.00;99896.59;5013148;28;20057;-78
2023/01/04 04:23:54;;;;;;;6.88;3.20;;;;;;;3.19;100.00;99889.88;5004848;28;20022;-77
2023/01/04 04:26:20;;;;;;;5.93;3.70;;;;;;;3.21;100.00;99883.44;4997512;28;20033;-79
2023/01/04 04:28:45;;;;;;;7.20;3.67;;;;;;;3.16;100.00;99876.78;5001530;28;20025;-79
2023/01/04 04:31:10;;;;;;;5.60;3.47;;;;;;;3.08;100.00;99850.69;4990946;28;20127;-78
2023/01/04 04:33:36;;;;;;;7.70;3.30;;;;;;;3.20;100.00;99855.00;5001430;28;20021;-78
2023/01/04 04:36:01;;;;;;;7.45;3.30;;;;;;;3.21;100.00;99855.84;4984005;28;20026;-78
2023/01/04 04:38:27;;;;;;;6.60;3.50;;;;;;;3.22;100.00;99855.72;5001776;28;20530;-78
2023/01/04 04:43:37;;;;;;;8.95;3.55;;;;;;;3.34;100.00;99855.66;5004748;28;20029;-78
2023/01/04 04:46:02;;;;;;;5.20;3.10;;;;;;;3.32;100.00;99849.56;4988333;28;20034;-77
2023/01/04 04:48:27;;;;;;;6.65;3.00;;;;;;;3.45;100.00;99863.59;5006853;28;20124;-79
2023/01/04 04:50:53;;;;;;;8.55;2.75;;;;;;;3.57;100.00;99845.66;4978361;28;20034;-80
2023/01/04 04:53:18;;;;;;;4.82;2.80;;;;;;;3.59;100.00;99825.81;4979703;28;20022;-79
2023/01/04 04:55:44;;;;;;;10.32;2.70;;;;;;;3.79;100.00;99831.22;5000341;28;20432;-78
2023/01/04 04:58:10;;;;;;;3.92;2.22;;;;;;;3.94;100.00;99832.56;5013787;28;20033;-83
2023/01/04 05:00:40;;;;;;;5.07;2.33;;;;;;;3.73;100.00;99787.97;5010618;28;20089;-80
2023/01/04 05:06:56;;;;;;;4.72;2.50;;;;;;;4.14;100.00;99837.00;5035388;28;20048;-80
2023/01/04 05:09:22;;;;;;;4.85;2.50;;;;;;;3.67;100.00;99758.25;5004042;28;20056;-79
2023/01/04 05:15:00;;;;;;;5.72;2.58;;;;;;;4.15;100.00;99832.50;5020888;28;20060;-80
2023/01/04 05:18:39;;;;;;;4.43;2.38;;;;;;;4.11;100.00;99842.63;5019517;28;20044;-80
2023/01/04 05:21:05;;;;;;;5.47;2.75;;;;;;;3.64;100.00;99750.47;5006664;28;20056;-79
2023/01/04 05:23:31;;;;;;;3.47;2.00;;;;;;;4.13;100.00;99821.91;4997847;28;20507;-79
2023/01/04 05:25:58;;;;;;;3.22;1.70;;;;;;;4.26;100.00;99810.09;4992933;28;20034;-78
2023/01/04 05:28:24;;;;;;;3.63;2.00;;;;;;;4.25;100.00;99797.69;5019096;28;20158;-77
2023/01/04 05:30:50;;;;;;;3.22;2.00;;;;;;;4.35;100.00;99820.84;5009359;28;20030;-77
2023/01/04 05:33:59;;;;;;;4.10;2.30;;;;;;;4.42;100.00;99826.47;5016999;28;20018;-80
2023/01/04 05:39:47;;;;;;;3.10;2.00;;;;;;;3.93;100.00;99734.50;5035307;28;20060;-81
2023/01/04 05:42:25;;;;;;;4.97;2.47;;;;;;;4.28;100.00;99776.00;5015095;28;20261;-79
2023/01/04 05:44:51;;;;;;;5.75;2.28;;;;;;;4.46;100.00;99811.81;5007343;28;20014;-77
2023/01/04 05:47:16;;;;;;;5.28;1.88;;;;;;;4.50;100.00;99812.38;5018359;28;20015;-75
2023/01/04 05:49:42;;;;;;;3.85;2.15;;;;;;;4.56;100.00;99817.19;5010325;28;20089;-79
2023/01/04 05:52:07;;;;;;;3.90;2.08;;;;;;;4.56;100.00;99791.25;4994599;28;20029;-78
2023/01/04 05:54:32;;;;;;;5.20;2.22;;;;;;;4.62;100.00;99811.28;4991911;28;20022;-77
2023/01/04 05:56:58;;;;;;;3.03;1.88;;;;;;;4.68;100.00;99801.81;4995143;28;20037;-77
2023/01/04 05:59:23;;;;;;;2.80;1.70;;;;;;;4.69;100.00;99807.06;4989694;28;20083;-74
2023/01/04 06:01:48;;;;;;;2.97;1.90;;;;;;;4.76;100.00;99804.63;5001853;28;20120;-76
2023/01/04 06:04:13;;;;;;;3.30;1.70;;;;;;;4.81;100.00;99805.91;5004670;28;20026;-76
2023/01/04 06:06:39;;;;;;;3.90;2.03;;;;;;;4.81;100.00;99805.91;5022987;28;20029;-77
2023/01/04 06:09:04;;;;;;;3.83;1.70;;;;;;;4.80;100.00;99798.84;5011959;28;20022;-75
2023/01/04 06:11:29;;;;;;;7.75;1.95;;;;;;;4.83;100.00;99803.09;4998820;28;20447;-75
2023/01/04 06:13:55;;;;;;;2.65;1.80;;;;;;;4.83;100.00;99792.38;4996119;28;20065;-77
2023/01/04 06:16:20;;;;;;;6.57;1.85;;;;;;;4.82;100.00;99780.81;4993694;28;20379;-76
2023/01/04 06:18:45;;;;;;;5.25;2.03;;;;;;;4.92;100.00;99794.16;4985760;28;20117;-73
2023/01/04 06:21:10;;;;;;;6.43;2.58;;;;;;;4.87;100.00;99796.44;4997461;28;20368;-74
2023/01/04 06:23:36;;;;;;;4.78;2.40;;;;;;;5.01;100.00;99801.38;5010109;28;20037;-73
2023/01/04 06:26:01;;;;;;;5.07;2.10;;;;;;;4.94;100.00;99773.44;4986355;28;20031;-75
2023/01/04 06:28:27;;;;;;;4.53;2.25;;;;;;;5.01;100.00;99790.66;5010653;28;20395;-76
2023/01/04 06:30:53;;;;;;;6.22;2.13;;;;;;;5.08;100.00;99796.28;5011678;28;20026;-76
2023/01/04 06:33:18;;;;;;;4.47;2.10;;;;;;;5.02;100.00;99773.56;5007560;28;20032;-80
2023/01/04 06:35:43;;;;;;;3.30;1.40;;;;;;;5.08;100.00;99780.19;5004496;28;20025;-80
2023/01/04 06:38:09;;;;;;;3.08;1.50;;;;;;;5.09;100.00;99773.00;4995468;28;20026;-78
2023/01/04 06:40:34;;;;;;;2.97;1.63;;;;;;;5.12;100.00;99764.66;4993459;28;20025;-79
2023/01/04 06:42:59;;;;;;;2.47;1.65;;;;;;;5.24;100.00;99785.81;4995016;28;20026;-80
2023/01/04 06:45:24;;;;;;;3.63;1.70;;;;;;;5.05;100.00;99754.50;4995442;28;20030;-80
2023/01/04 06:47:50;;;;;;;2.88;1.50;;;;;;;5.24;100.00;99779.59;5015953;28;20049;-80
2023/01/04 06:50:15;;;;;;;4.78;1.67;;;;;;;5.20;100.00;99780.88;4997462;28;20037;-80
2023/01/04 06:52:41;;;;;;;3.55;1.85;;;;;;;5.23;100.00;99780.56;5016160;28;20014;-79
2023/01/04 06:55:10;;;;;;;2.85;1.73;;;;;;;5.18;100.00;99774.81;5000348;28;20029;-78
2023/01/04 06:57:36;;;;;;;4.00;2.00;;;;;;;5.16;100.00;99774.09;5000052;28;20034;-78
2023/01/04 07:00:03;;;;;;;3.78;2.30;;;;;;;5.08;100.00;99779.34;5008550;28;20041;-80
2023/01/04 07:02:28;;;;;;;4.55;1.60;;;;;;;5.09;100.00;99764.94;4992886;28;20125;-74
2023/01/04 07:04:54;;;;;;;4.43;1.85;;;;;;;5.25;100.00;99786.66;5009866;28;20022;-72
2023/01/04 07:07:19;;;;;;;2.95;1.70;;;;;;;5.19;100.00;99766.63;5009518;28;20027;-72
2023/01/04 07:09:44;;;;;;;4.05;1.90;;;;;;;5.26;100.00;99777.59;5006357;28;20405;-74
2023/01/04 07:12:09;;;;;;;5.05;1.95;;;;;;;5.35;100.00;99776.75;4997398;28;20125;-72
2023/01/04 07:14:35;;;;;;;3.88;1.90;;;;;;;5.35;100.00;99789.31;5011240;28;20026;-72
2023/01/04 07:17:00;;;;;;;2.97;1.73;;;;;;;5.35;100.00;99782.09;5000953;28;20018;-73
2023/01/04 07:19:25;;;;;;;3.38;1.73;;;;;;;5.41;100.00;99776.16;5002540;28;20030;-73
2023/01/04 07:21:52;;;;;;;4.07;1.50;;;;;;;5.44;100.00;99780.38;4993419;28;20072;-72
2023/01/04 07:24:17;;;;;;;3.92;1.75;;;;;;;5.46;100.00;99773.03;4988163;28;20026;-72
2023/01/04 07:26:43;;;;;;;4.20;1.70;;;;;;;5.49;100.00;99788.84;5008629;28;20034;-73
2023/01/04 07:29:28;;;;;;;4.70;1.38;;;;;;;5.44;100.00;99786.59;4989749;28;20039;-81
2023/01/04 07:31:53;;;;;;;3.70;1.67;;;;;;;5.34;100.00;99784.94;5007413;28;20043;-74
2023/01/04 07:34:31;;;;;;;3.03;1.75;;;;;;;5.16;100.00;99764.22;5007297;28;20030;-82
2023/01/04 07:37:04;;;;;;;3.67;2.10;;;;;;;5.16;100.00;99782.13;5027156;28;20050;-81
2023/01/04 07:39:29;;;;;;;2.95;1.75;;;;;;;4.70;100.00;99732.84;5029535;28;20026;-82
2023/01/04 07:41:57;;;;;;;4.38;1.85;;;;;;;4.72;100.00;99745.09;5009540;28;20033;-79
2023/01/04 07:44:25;;;;;;;5.60;2.03;;;;;;;4.43;100.00;99725.50;4996943;28;20184;-77
2023/01/04 07:46:50;;;;;;;3.33;2.00;;;;;;;4.85;100.00;99790.41;5013656;28;20029;-73
2023/01/04 07:49:17;;;;;;;5.32;1.90;;;;;;;4.80;100.00;99792.66;4998715;28;20476;-73
2023/01/04 07:54:34;;;;;;;3.85;1.70;;;;;;;4.68;100.00;99777.69;5021234;28;20204;-81
2023/01/04 07:57:00;;;;;;;7.88;2.10;;;;;;;4.66;100.00;99776.97;4998245;28;20020;-79
2023/01/04 07:59:28;;;;;;;3.10;2.10;;;;;;;4.74;100.00;99783.34;5014724;28;20026;-80
2023/01/04 08:01:56;;;;;;;4.07;2.10;;;;;;;4.61;100.00;99772.91;4994370;28;20049;-80
2023/01/04 08:04:23;;;;;;;6.65;2.17;;;;;;;4.69;100.00;99782.06;4994433;28;20022;-78
2023/01/04 08:06:51;;;;;;;5.80;2.15;;;;;;;4.47;100.00;99743.00;5002247;28;20026;-80
2023/01/04 08:09:17;;;;;;;5.07;2.20;;;;;;;4.71;100.00;99772.88;5016551;28;20022;-80
2023/01/04 08:11:43;;;;;;;5.65;2.17;;;;;;;4.47;100.00;99732.28;5016275;28;20041;-81
2023/01/04 08:14:09;;;;;;;4.55;2.80;;;;;;;4.73;100.00;99775.44;5019070;28;20029;-78
2023/01/04 08:16:36;;;;;;;7.05;2.83;;;;;;;4.72;100.00;99779.13;4998572;28;20021;-75
2023/01/04 08:19:19;;;;;;;5.70;3.22;;;;;;;4.69;100.00;99774.00;5009023;28;20034;-80
2023/01/04 08:21:45;;;;;;;6.80;2.55;;;;;;;4.82;100.00;99774.56;4994178;28;20018;-80
2023/01/04 08:24:12;;;;;;;10.10;3.00;;;;;;;4.83;100.00;99770.91;4999178;28;20129;-79
2023/01/04 08:26:46;;;;;;;2.63;1.42;;;;;;;4.89;100.00;99766.81;4997462;28;20022;-81
2023/01/04 08:29:12;;;;;;;6.68;2.10;;;;;;;5.02;100.00;99770.03;5014459;28;20033;-73
2023/01/04 08:31:38;;;;;;;3.92;2.03;;;;;;;5.01;100.00;99763.84;5012765;28;20033;-80
2023/01/04 08:34:05;;;;;;;6.97;2.08;;;;;;;4.96;100.00;99738.44;4987054;28;20026;-78
2023/01/04 08:36:33;;;;;;;3.40;1.88;;;;;;;5.15;100.00;99750.94;4983550;28;20022;-79
2023/01/04 08:39:03;;;;;;;7.38;1.42;;;;;;;5.24;100.00;99736.69;4981085;28;20385;-74
2023/01/04 08:41:30;;;;;;;1.50;1.05;;;;;;;5.45;100.00;99729.25;5000832;28;20056;-81
2023/01/04 08:44:43;;;;;;;3.22;1.17;;;;;;;5.53;100.00;99724.97;5017254;28;20022;-80
2023/01/04 08:47:29;;;;;;;4.82;1.35;;;;;;;5.38;100.00;99671.78;4963839;28;20042;-74
2023/01/04 08:50:15;;;;;;;2.53;1.08;;;;;;;5.69;100.00;99688.44;4998075;28;20040;-81
2023/01/04 08:53:31;;;;;;;3.03;1.00;;;;;;;5.91;100.00;99695.22;5009253;28;20029;-81
2023/01/04 08:56:55;;;;;;;2.67;1.10;;;;;;;5.89;100.00;99701.72;4998085;28;20038;-82
2023/01/04 08:59:26;;;;;;;2.58;0.77;;;;;;;5.66;100.00;99666.44;4968587;28;20062;-81
2023/01/04 09:01:51;;;;;;;1.50;0.77;;;;;;;5.59;100.00;99665.31;5010525;28;20041;-74
2023/01/04 09:04:17;;;;;;;2.55;0.90;;;;;;;5.88;100.00;99716.16;5032578;28;20022;-81
2023/01/04 09:06:42;;;;;;;4.65;1.35;;;;;;;5.74;100.00;99679.06;5014911;28;20036;-77
2023/01/04 09:09:07;;;;;;;3.75;0.90;;;;;;;5.76;100.00;99702.09;5006591;28;20035;-80
2023/01/04 09:11:34;;;;;;;2.25;0.90;;;;;;;5.80;100.00;99703.50;5002598;28;20065;-79
2023/01/04 09:14:00;;;;;;;1.27;0.95;;;;;;;5.78;100.00;99718.91;5015569;28;20029;-76
2023/01/04 09:16:25;;;;;;;4.65;1.10;;;;;;;5.79;100.00;99706.31;5024985;28;20027;-78
2023/01/04 09:18:51;;;;;;;3.22;1.20;;;;;;;5.89;100.00;99729.47;5036923;22;20517;-59
2023/01/04 09:21:19;;;;;;;2.80;1.10;;;;;;;5.97;100.00;99728.69;5027107;28;20022;-59
2023/01/04 09:23:45;;;;;;;2.13;1.00;;;;;;;5.97;100.00;99726.03;5020764;28;20034;-59
2023/01/04 09:26:13;;;;;;;2.78;1.10;;;;;;;6.04;100.00;99720.91;5012820;28;20025;-59
2023/01/04 09:28:42;;;;;;;1.55;1.10;;;;;;;6.10;100.00;99723.84;5006607;28;20033;-59
2023/01/04 09:31:13;;;;;;;2.92;1.00;;;;;;;6.12;100.00;99707.56;5009056;28;20081;-59
2023/01/04 09:33:39;;;;;;;3.75;1.00;;;;;;;6.13;100.00;99715.47;5009944;28;20485;-59
2023/01/04 09:36:06;;;;;;;1.42;0.80;;;;;;;6.18;100.00;99712.31;5002080;28;20022;-59
2023/01/04 09:38:33;;;;;;;2.03;1.00;;;;;;;6.25;100.00;99708.00;4996902;28;20036;-59
2023/01/04 09:41:20;;;;;;;4.38;1.20;;;;;;;6.38;100.00;99693.34;5017499;28;20029;-58
2023/01/04 09:43:48;;;;;;;2.58;1.05;;;;;;;6.46;100.00;99696.94;4996991;28;20040;-59
2023/01/04 09:46:25;;;;;;;3.10;1.17;;;;;;;6.51;100.00;99699.19;5006091;28;20616;-59
2023/01/04 09:48:55;;;;;;;4.00;0.90;;;;;;;6.54;100.00;99699.69;5001431;28;20045;-59
2023/01/04 09:51:27;;;;;;;3.35;1.08;;;;;;;6.61;100.00;99691.88;5021096;28;20026;-59
2023/01/04 09:53:59;;;;;;;2.78;1.10;;;;;;;6.63;100.00;99686.31;5001717;28;20022;-58
2023/01/04 09:56:32;;;;;;;1.75;1.00;;;;;;;6.62;100.00;99684.66;5007573;28;20018;-59
2023/01/04 09:59:01;;;;;;;3.42;0.80;;;;;;;6.70;100.00;99679.31;5018474;28;20030;-59
2023/01/04 10:01:40;;;;;;;1.65;0.90;;;;;;;6.77;100.00;99673.16;5003939;28;20026;-59
2023/01/04 10:04:22;;;;;;;2.92;1.15;;;;;;;6.87;100.00;99665.00;5005838;28;20029;-59
2023/01/04 10:06:48;;;;;;;1.90;0.88;;;;;;;6.90;100.00;99653.91;5008437;28;20424;-58
2023/01/04 10:09:16;;;;;;;1.05;0.90;;;;;;;6.97;100.00;99648.75;5006117;28;20129;-59
2023/01/04 10:12:07;;;;;;;3.28;0.70;;;;;;;7.03;100.00;99648.94;5020912;28;20069;-58
2023/01/04 10:14:59;;;;;;;1.73;0.80;;;;;;;7.14;100.00;99637.06;5021738;28;20026;-59
2023/01/04 10:17:34;;;;;;;1.85;0.80;;;;;;;7.24;100.00;99645.00;5006842;28;20041;-59
2023/01/04 10:20:48;;;;;;;2.50;0.65;;;;;;;7.28;100.00;99637.44;5015907;28;20437;-59
2023/01/04 10:23:36;;;;;;;1.38;0.55;;;;;;;7.27;100.00;99642.00;5006489;28;20030;-59
2023/01/04 10:26:14;;;;;;;2.45;1.60;;;;;;;7.31;100.00;99650.59;5022413;28;20026;-58
2023/01/04 10:28:47;;;;;;;3.63;0.93;;;;;;;7.35;100.00;99643.88;5015451;28;20394;-58
2023/01/04 10:31:42;;;;;;;3.83;0.80;;;;;;;7.32;100.00;99622.69;5012014;28;20026;-58
2023/01/04 10:34:27;;;;;;;1.50;1.08;;;;;;;7.37;100.00;99621.19;5006992;28;20030;-58
2023/01/04 10:37:20;;;;;;;1.17;0.60;;;;;;;7.54;100.00;99615.84;5003647;28;20355;-58
2023/01/04 10:39:51;;;;;;;5.70;0.77;;;;;;;7.70;100.00;99615.88;5009268;28;20050;-59
2023/01/04 10:42:20;;;;;;;5.03;1.23;;;;;;;7.81;100.00;99618.28;5000274;28;20018;-59
2023/01/04 10:44:57;;;;;;;2.55;1.05;;;;;;;7.98;100.00;99610.22;5019948;28;20081;-59
2023/01/04 10:47:22;;;;;;;2.10;1.10;;;;;;;8.06;100.00;99605.66;5012810;28;20035;-59
2023/01/04 10:49:56;;;;;;;2.22;1.10;;;;;;;8.17;100.00;99607.19;5008949;28;20046;-59
2023/01/04 10:52:35;;;;;;;3.03;0.95;;;;;;;8.41;100.00;99597.44;5012105;28;20042;-59
2023/01/04 10:55:16;;;;;;;1.80;0.77;;;;;;;8.64;100.00;99603.81;5001857;28;20032;-59
2023/01/04 10:58:13;;;;;;;3.95;1.00;;;;;;;8.80;100.00;99591.31;5003151;28;20042;-59
2023/01/04 11:00:46;;;;;;;2.97;1.00;;;;;;;8.93;100.00;99581.69;5011725;28;20022;-59
2023/01/04 11:03:17;;;;;;;4.18;0.95;;;;;;;8.86;100.00;99569.88;5015045;28;20022;-59
2023/01/04 11:05:59;;;;;;;1.95;0.85;;;;;;;9.06;100.00;99558.66;5014143;28;20033;-58
2023/01/04 11:11:17;;;;;;;1.33;0.63;;;;;;;9.18;100.00;99535.69;5045165;22;20042;-72
2023/01/04 11:13:42;;;;;;;3.22;1.27;;;;;;;9.25;100.00;99542.06;5016641;28;20506;-72
2023/01/04 11:16:07;;;;;;;5.47;0.60;;;;;;;9.32;100.00;99532.22;5022578;28;20026;-72
2023/01/04 11:18:36;;;;;;;2.25;0.60;;;;;;;9.47;100.00;99559.31;5029351;28;20474;-72
2023/01/04 11:21:07;;;;;;;1.23;0.60;;;;;;;9.41;100.00;99550.06;5015068;28;20108;-72
2023/01/04 11:23:32;;;;;;;2.83;0.65;;;;;;;9.37;100.00;99556.81;5017879;28;20053;-72
2023/01/04 11:26:03;;;;;;;3.10;0.50;;;;;;;9.36;100.00;99546.22;5002750;28;20061;-73
2023/01/04 11:28:34;;;;;;;1.73;0.50;;;;;;;9.37;100.00;99551.44;5019828;28;20021;-74
2023/01/04 11:31:21;;;;;;;1.05;0.43;;;;;;;9.35;100.00;99561.59;5028724;28;20109;-73
2023/01/04 11:33:51;;;;;;;2.35;0.50;;;;;;;9.24;100.00;99564.66;5002008;28;20032;-73
2023/01/04 11:36:37;;;;;;;1.02;0.52;;;;;;;9.28;100.00;99555.19;5011774;28;20021;-74
2023/01/04 11:39:04;;;;;;;2.45;0.55;;;;;;;9.19;100.00;99548.97;5013635;28;20580;-73
2023/01/04 11:41:29;;;;;;;3.22;0.65;;;;;;;9.14;100.00;99526.22;5016619;28;20040;-73
2023/01/04 11:44:01;;;;;;;0.95;0.50;;;;;;;9.28;100.00;99547.09;5020486;28;20041;-73
2023/01/04 11:46:27;;;;;;;2.38;0.70;;;;;;;9.30;100.00;99545.06;5017500;28;20064;-74
2023/01/04 11:48:54;;;;;;;1.98;0.52;;;;;;;9.30;100.00;99528.00;5002464;28;20053;-73
2023/01/04 11:51:28;;;;;;;5.45;0.60;;;;;;;9.27;100.00;99540.00;5018795;28;20037;-73
2023/01/04 11:54:04;;;;;;;2.53;0.82;;;;;;;9.25;100.00;99550.16;5010744;28;20026;-73
2023/01/04 11:56:32;;;;;;;3.33;0.70;;;;;;;9.12;100.00;99537.22;4999102;28;20224;-74
2023/01/04 11:59:16;;;;;;;1.33;0.40;;;;;;;9.19;100.00;99548.97;4996677;28;20029;-73
2023/01/04 12:01:48;;;;;;;3.58;0.60;;;;;;;9.16;100.00;99554.75;5030184;28;20036;-73
2023/01/04 12:04:19;;;;;;;3.97;0.32;;;;;;;9.18;100.00;99557.28;5010982;28;20053;-74
2023/01/04 12:06:58;;;;;;;1.75;0.50;;;;;;;9.14;100.00;99550.53;5001517;28;20033;-73
2023/01/04 12:09:24;;;;;;;1.33;0.30;;;;;;;9.09;100.00;99536.72;4996351;28;20040;-73
2023/01/04 12:11:55;;;;;;;0.75;0.47;;;;;;;9.19;100.00;99542.75;5004006;28;20033;-73
2023/01/04 12:14:34;;;;;;;2.80;0.50;;;;;;;9.10;100.00;99550.06;5026267;28;20037;-74
2023/01/04 12:17:18;;;;;;;1.45;0.47;;;;;;;9.03;100.00;99548.22;5007893;28;20017;-78
2023/01/04 12:19:45;;;;;;;1.55;0.60;;;;;;;8.84;100.00;99555.72;5012211;28;20022;-74
2023/01/04 12:22:32;;;;;;;1.60;0.52;;;;;;;8.64;100.00;99549.03;5020524;28;20083;-75
2023/01/04 12:24:58;;;;;;;1.73;0.80;;;;;;;8.41;100.00;99552.47;5023881;28;20020;-77
2023/01/04 12:27:24;;;;;;;3.53;0.50;;;;;;;8.23;100.00;99549.91;5011609;28;20169;-74
2023/01/04 12:30:31;;;;;;;1.17;0.45;;;;;;;8.19;100.00;99545.03;5024322;28;20057;-73
2023/01/04 12:32:56;;;;;;;1.15;0.43;;;;;;;7.93;100.00;99556.81;5030225;28;20479;-75
2023/01/04 12:36:00;;;;;;;5.63;0.60;;;;;;;7.76;100.00;99544.38;5018051;28;20042;-74
2023/01/04 12:38:53;;;;;;;2.65;0.95;;;;;;;7.63;100.00;99551.06;5012568;28;20021;-74
2023/01/04 12:41:34;;;;;;;1.50;0.93;;;;;;;7.59;100.00;99536.25;5003855;28;20068;-74
2023/01/04 12:44:01;;;;;;;3.42;1.45;;;;;;;7.55;100.00;99526.00;5023747;28;20079;-75
2023/01/04 12:49:26;;;;;;;4.70;1.40;;;;;;;7.56;100.00;99528.50;5017404;28;20094;-75
2023/01/04 12:52:06;;;;;;;3.22;1.75;;;;;;;7.57;100.00;99530.22;5001460;28;20052;-76
2023/01/04 12:54:43;;;;;;;3.38;1.20;;;;;;;7.60;100.00;99513.72;5012080;28;20026;-75